< < Back
Terminal Aerodrome Forecast


Current Version              Previous Versions:   1  2  3  4  5  6  7  8  9  

Terminal Aerodrome Forecast

884
FTUS44 KMOB 220100 AAB
TAFMOB
TAF AMD
KMOB 220132Z 2202/2224 32004KT P6SM SCT045 BKN200
     FM220400 VRB03KT P6SM SCT030 SCT250=

Latest METAR

730
SAUS80 KWBC 221100 CCA
MTRMOB
METAR KMOB 221056Z 00000KT 4SM BR OVC039 23/23 A3001 RMK AO2 SLP159
T02330233 $


USA.gov is the U.S. government's official web portal to all federal, state and local government web resources and services.